To NAV CANADA Home Page Login to a new session Search on AWWS site Feedback and Comments Disclaimer Vers la page française équivalente Tips FAQ What's new on the site To the Forecasts and Observations / NOTAM section To "File a Flight Plan" website Publications and other links Update of the User's profile FIC Telephone Numbers My Weather Data Folder Route Weather Data Regional Weather Data Local Weather Data To the Forecasts and Observations / NOTAM section
Request Generated 02/05/2016 at 23:53:48 UTC . Weather information available at that time is displayed.

METAR/TAF

COMOX/BC    

METAR CYQQ 052300Z 14021G34KT 8SM -RA FEW020 OVC035 08/08 A2976 RMK SC2SC6 SLP077=
METAR CYQQ 052200Z 14022G29KT 8SM -RA FEW020 OVC035 08/07 A2977 RMK SC2SC6 PRESFR /R12/ SLP083=
METAR CYQQ 052100Z 15019G24KT 8SM RA FEW020 OVC035 08/07 A2985 RMK SC2SC6 PRESFR SLP109=

TAF CYQQ 052339Z 0600/0624 14025G35KT P6SM -RA SCT015 OVC030 TEMPO
0600/0603 5SM SHRA BR OVC015
BECMG 0601/0603 24010KT
FM060300 23005KT P6SM SCT030 SCT100
RMK NXT FCST BY 060600Z=
Your time UTC time
Weather data provided by Environment Canada and NAV CANADA